Time;durP1;ratioP1;P1;durP2;ratioP2;P2;SDS_P1;SDS_P2;PMS_P1;PMS_P2;Temp;Humidity;BMP_temperature;BMP_pressure;BME280_temperature;BME280_humidity;BME280_pressure;Samples;Min_cycle;Max_cycle;Signal;HPM_P1;HPM_P2
2023/03/15 00:01:02;;;;;;;3.47;0.98;;;3.30;99.90;;;;;;5070814;28;20072;-73
2023/03/15 00:03:28;;;;;;;1.02;0.77;;;3.30;99.90;;;;;;5068324;28;20036;-73
2023/03/15 00:05:54;;;;;;;3.08;1.05;;;3.30;99.90;;;;;;5062584;28;20048;-73
2023/03/15 00:08:20;;;;;;;3.92;1.00;;;3.30;99.90;;;;;;5064438;28;20041;-73
2023/03/15 00:10:47;;;;;;;7.70;1.60;;;3.30;99.90;;;;;;5063320;28;20091;-73
2023/03/15 00:13:13;;;;;;;4.43;1.30;;;3.30;99.90;;;;;;5053978;28;20037;-73
2023/03/15 00:15:48;;;;;;;2.97;1.10;;;3.30;99.90;;;;;;5039570;28;20028;-73
2023/03/15 00:18:15;;;;;;;5.82;1.20;;;3.20;99.90;;;;;;5058880;28;20036;-74
2023/03/15 00:20:40;;;;;;;3.00;1.38;;;3.20;99.90;;;;;;5059754;28;20622;-73
2023/03/15 00:23:06;;;;;;;3.75;1.20;;;3.40;99.90;;;;;;5066158;28;20123;-73
2023/03/15 00:25:32;;;;;;;3.17;1.25;;;3.20;99.90;;;;;;5063517;28;20050;-73
2023/03/15 00:27:58;;;;;;;5.10;1.40;;;3.30;99.90;;;;;;5069927;28;20041;-74
2023/03/15 00:30:23;;;;;;;2.97;1.17;;;3.20;99.90;;;;;;5068228;28;20079;-73
2023/03/15 00:32:52;;;;;;;5.43;1.25;;;3.30;99.90;;;;;;5065641;28;20032;-73
2023/03/15 00:35:18;;;;;;;3.92;1.20;;;3.20;99.90;;;;;;5073054;28;20443;-74
2023/03/15 00:37:44;;;;;;;3.20;1.20;;;3.20;99.90;;;;;;5046669;28;20044;-74
2023/03/15 00:40:11;;;;;;;6.57;1.20;;;3.20;99.90;;;;;;5051636;28;20412;-73
2023/03/15 00:42:36;;;;;;;9.27;1.40;;;3.20;99.90;;;;;;5061793;28;20119;-73
2023/03/15 00:45:02;;;;;;;3.67;1.17;;;3.20;99.90;;;;;;5069092;28;20123;-73
2023/03/15 00:47:28;;;;;;;5.03;1.30;;;3.10;99.90;;;;;;5058272;28;20037;-74
2023/03/15 00:49:53;;;;;;;4.93;1.10;;;3.20;99.90;;;;;;5052056;28;20049;-74
2023/03/15 00:52:20;;;;;;;5.32;1.30;;;3.10;99.90;;;;;;5068446;28;20094;-74
2023/03/15 00:54:53;;;;;;;4.13;1.10;;;3.10;99.90;;;;;;5068461;28;20103;-74
2023/03/15 00:57:19;;;;;;;4.72;1.20;;;3.10;99.90;;;;;;5056736;28;20115;-74
2023/03/15 00:59:45;;;;;;;6.75;1.40;;;3.10;99.90;;;;;;5056245;28;20132;-74
2023/03/15 01:02:11;;;;;;;4.05;0.85;;;3.30;99.90;;;;;;5061863;28;20575;-74
2023/03/15 01:04:37;;;;;;;5.40;1.55;;;3.10;99.90;;;;;;5067841;28;20043;-74
2023/03/15 01:07:03;;;;;;;9.13;1.60;;;3.10;99.90;;;;;;5055270;28;20492;-74
2023/03/15 01:09:31;;;;;;;7.45;1.42;;;3.20;99.90;;;;;;5067813;28;20040;-75
2023/03/15 01:11:57;;;;;;;4.43;1.17;;;3.30;99.90;;;;;;5061374;28;20102;-74
2023/03/15 01:14:23;;;;;;;3.97;1.20;;;3.20;99.90;;;;;;5067328;28;20456;-74
2023/03/15 01:16:49;;;;;;;7.53;1.30;;;3.20;99.90;;;;;;5065828;28;20064;-75
2023/03/15 01:19:15;;;;;;;6.60;1.10;;;3.20;99.90;;;;;;5065701;28;20072;-73
2023/03/15 01:21:41;;;;;;;7.45;1.23;;;3.20;99.90;;;;;;5063744;28;20465;-73
2023/03/15 01:24:11;;;;;;;4.68;1.38;;;3.20;99.90;;;;;;5066946;28;20036;-73
2023/03/15 01:26:36;;;;;;;6.28;1.27;;;3.20;99.90;;;;;;5060296;28;20415;-73
2023/03/15 01:29:02;;;;;;;6.03;1.00;;;3.20;99.90;;;;;;5061718;28;20040;-73
2023/03/15 01:31:29;;;;;;;4.57;1.30;;;3.40;99.90;;;;;;5068483;28;20048;-73
2023/03/15 01:33:55;;;;;;;8.00;1.27;;;3.30;99.90;;;;;;5060910;28;20370;-73
2023/03/15 01:36:22;;;;;;;5.85;1.40;;;3.20;99.90;;;;;;5068806;28;20132;-74
2023/03/15 01:38:48;;;;;;;9.88;1.65;;;3.20;99.90;;;;;;5064348;28;20456;-74
2023/03/15 01:41:15;;;;;;;3.15;1.00;;;3.20;99.90;;;;;;5064479;28;20123;-74
2023/03/15 01:43:47;;;;;;;7.63;1.40;;;3.20;99.90;;;;;;5049117;28;20037;-74
2023/03/15 01:46:19;;;;;;;5.13;1.40;;;3.20;99.90;;;;;;5066261;28;20052;-74
2023/03/15 01:48:54;;;;;;;5.55;1.20;;;3.20;99.90;;;;;;5055834;28;20040;-73
2023/03/15 01:51:25;;;;;;;9.25;1.20;;;3.20;99.90;;;;;;5056648;28;20044;-73
2023/03/15 01:54:09;;;;;;;10.33;1.43;;;3.20;99.90;;;;;;5057447;28;20033;-73
2023/03/15 01:56:39;;;;;;;5.05;1.25;;;3.30;99.90;;;;;;5053246;28;20037;-73
2023/03/15 01:59:10;;;;;;;7.55;1.10;;;3.20;99.90;;;;;;5065625;28;20052;-73
2023/03/15 02:01:38;;;;;;;6.72;1.30;;;3.20;99.90;;;;;;5066185;28;20510;-73
2023/03/15 02:04:09;;;;;;;6.10;1.17;;;3.20;99.90;;;;;;5043107;28;20049;-73
2023/03/15 02:06:35;;;;;;;5.70;1.30;;;3.20;99.90;;;;;;5065183;28;20044;-73
2023/03/15 02:09:08;;;;;;;7.90;1.27;;;3.20;99.90;;;;;;5066908;28;20083;-74
2023/03/15 02:11:34;;;;;;;;;;;3.20;99.90;;;;;;5063987;28;20489;-73
2023/03/15 02:14:03;;;;;;;4.88;1.00;;;3.10;99.90;;;;;;5059380;28;19916;-73
2023/03/15 02:16:30;;;;;;;7.43;1.30;;;3.10;99.90;;;;;;5065797;28;20058;-74
2023/03/15 02:18:55;;;;;;;8.02;1.00;;;3.10;99.90;;;;;;5062803;28;20452;-74
2023/03/15 02:21:31;;;;;;;2.78;1.00;;;3.10;99.90;;;;;;5063948;28;20129;-73
2023/03/15 02:24:25;;;;;;;5.68;1.10;;;3.10;99.90;;;;;;5058304;28;20045;-75
2023/03/15 02:26:56;;;;;;;6.40;1.10;;;3.10;99.90;;;;;;5059597;28;20407;-75
2023/03/15 02:29:24;;;;;;;4.80;1.17;;;3.10;99.90;;;;;;5058706;28;20121;-75
2023/03/15 02:31:51;;;;;;;6.68;1.20;;;3.10;99.90;;;;;;5056433;28;20037;-75
2023/03/15 02:34:16;;;;;;;6.65;1.17;;;3.00;99.90;;;;;;5065826;28;20039;-75
2023/03/15 02:36:42;;;;;;;7.82;1.58;;;3.10;99.90;;;;;;5062636;28;20028;-75
2023/03/15 02:39:16;;;;;;;4.72;1.40;;;3.00;99.90;;;;;;5072316;28;20036;-75
2023/03/15 02:41:46;;;;;;;6.80;1.30;;;3.00;99.90;;;;;;5066284;28;20504;-75
2023/03/15 02:44:21;;;;;;;4.82;1.25;;;3.00;99.90;;;;;;5048171;28;20102;-75
2023/03/15 02:46:49;;;;;;;7.53;1.15;;;3.00;99.90;;;;;;5071035;28;20611;-75
2023/03/15 02:49:16;;;;;;;9.52;1.45;;;2.90;99.90;;;;;;5054470;28;20128;-75
2023/03/15 02:51:42;;;;;;;6.70;1.40;;;2.90;99.90;;;;;;5059706;28;20055;-75
2023/03/15 02:54:07;;;;;;;5.20;1.00;;;2.90;99.90;;;;;;5065362;28;20037;-75
2023/03/15 02:56:33;;;;;;;12.80;1.50;;;3.00;99.90;;;;;;5064896;28;20064;-75
2023/03/15 02:58:59;;;;;;;10.02;1.55;;;3.00;99.90;;;;;;5070556;28;20036;-73
2023/03/15 03:01:24;;;;;;;6.78;1.13;;;2.90;99.90;;;;;;5059241;28;20431;-75
2023/03/15 03:03:50;;;;;;;5.70;1.30;;;2.90;99.90;;;;;;5065591;28;20044;-75
2023/03/15 03:06:16;;;;;;;8.23;1.25;;;2.90;99.90;;;;;;5072962;28;20032;-74
2023/03/15 03:08:45;;;;;;;6.82;1.20;;;2.90;99.90;;;;;;5068262;28;20086;-74
2023/03/15 03:11:12;;;;;;;6.40;1.13;;;2.80;99.90;;;;;;5065089;28;20102;-75
2023/03/15 03:13:38;;;;;;;5.10;1.00;;;2.80;99.90;;;;;;5069424;28;20036;-75
2023/03/15 03:16:03;;;;;;;5.95;1.58;;;2.80;99.90;;;;;;5061988;28;20559;-75
2023/03/15 03:18:30;;;;;;;4.30;1.02;;;2.80;99.90;;;;;;5060893;28;20137;-75
2023/03/15 03:20:57;;;;;;;9.40;1.40;;;2.80;99.90;;;;;;5061186;28;20075;-74
2023/03/15 03:23:26;;;;;;;7.40;1.27;;;2.80;99.90;;;;;;5055195;28;20139;-74
2023/03/15 03:25:53;;;;;;;7.65;1.05;;;2.80;99.90;;;;;;5068786;28;20123;-75
2023/03/15 03:28:19;;;;;;;7.95;1.33;;;2.80;99.90;;;;;;5061323;28;20120;-74
2023/03/15 03:30:45;;;;;;;8.10;1.40;;;2.80;99.90;;;;;;5052598;28;20043;-75
2023/03/15 03:33:11;;;;;;;10.40;1.40;;;2.70;99.90;;;;;;5067422;28;20034;-74
2023/03/15 03:35:36;;;;;;;7.97;1.25;;;2.70;99.90;;;;;;5061703;28;20086;-75
2023/03/15 03:38:02;;;;;;;3.83;0.90;;;2.70;99.90;;;;;;5059152;28;20166;-75
2023/03/15 03:40:27;;;;;;;6.05;1.58;;;2.60;99.90;;;;;;5064770;28;20119;-74
2023/03/15 03:42:53;;;;;;;8.50;1.30;;;2.60;99.90;;;;;;5069002;28;20115;-74
2023/03/15 03:46:07;;;;;;;8.88;1.60;;;2.50;99.90;;;;;;5109438;22;20054;-78
2023/03/15 03:49:45;;;;;;;9.00;1.27;;;2.50;99.90;;;;;;5127518;27;20076;-78
2023/03/15 03:52:19;;;;;;;3.10;1.35;;;2.40;99.90;;;;;;5101909;28;20083;-78
2023/03/15 03:54:49;;;;;;;9.20;1.30;;;2.40;99.90;;;;;;5089662;28;20037;-78
2023/03/15 03:57:20;;;;;;;6.72;1.30;;;2.50;99.90;;;;;;5108983;28;20038;-78
2023/03/15 03:59:51;;;;;;;11.90;1.60;;;4.00;99.90;;;;;;5109854;28;20054;-78
2023/03/15 04:02:42;;;;;;;4.60;1.10;;;2.20;99.90;;;;;;5105609;28;20562;-78
2023/03/15 04:05:43;;;;;;;6.22;0.98;;;3.40;99.90;;;;;;5068968;28;20067;-78
2023/03/15 04:08:10;;;;;;;6.90;1.02;;;1.90;99.90;;;;;;5085651;28;20035;-78
2023/03/15 04:10:36;;;;;;;3.92;1.00;;;2.20;99.90;;;;;;5089347;28;20059;-78
2023/03/15 04:13:20;;;;;;;5.22;1.33;;;2.30;99.90;;;;;;5083036;28;20046;-78
2023/03/15 04:15:47;;;;;;;4.20;1.10;;;2.00;99.90;;;;;;5084875;28;20035;-78
2023/03/15 04:18:16;;;;;;;7.38;1.48;;;0.80;99.90;;;;;;5071177;28;20070;-78
2023/03/15 04:20:53;;;;;;;9.20;1.20;;;2.00;99.90;;;;;;5085071;28;20120;-78
2023/03/15 04:27:29;;;;;;;5.03;0.95;;;2.10;99.90;;;;;;5121061;28;20046;-78
2023/03/15 04:30:07;;;;;;;6.82;1.40;;;1.90;99.90;;;;;;5120990;28;20043;-78
2023/03/15 04:32:34;;;;;;;8.55;1.50;;;2.10;99.90;;;;;;5070418;28;20057;-78
2023/03/15 04:35:01;;;;;;;5.65;1.20;;;2.20;99.90;;;;;;5094268;28;20390;-78
2023/03/15 04:37:33;;;;;;;6.53;1.15;;;1.40;99.90;;;;;;5095765;27;20042;-78
2023/03/15 04:40:33;;;;;;;7.80;1.30;;;2.30;99.90;;;;;;5065761;28;20587;-78
2023/03/15 04:43:08;;;;;;;9.63;1.48;;;2.20;99.90;;;;;;5104612;28;20498;-78
2023/03/15 04:45:58;;;;;;;8.00;1.10;;;2.30;99.90;;;;;;4221616;27;25238341;-78
2023/03/15 04:48:25;;;;;;;5.68;1.27;;;2.20;99.90;;;;;;5090057;27;20050;-78
2023/03/15 04:50:56;;;;;;;7.22;1.42;;;2.20;99.90;;;;;;5088022;27;20518;-78
2023/03/15 04:53:30;;;;;;;7.25;1.35;;;2.30;99.90;;;;;;5108742;27;20030;-78
2023/03/15 04:56:03;;;;;;;5.70;1.15;;;2.40;99.90;;;;;;5088535;28;20096;-78
2023/03/15 04:58:37;;;;;;;8.13;1.10;;;2.20;99.90;;;;;;5122310;27;20083;-78
2023/03/15 05:01:05;;;;;;;4.82;1.15;;;2.30;99.90;;;;;;5088007;28;20503;-78
2023/03/15 05:03:33;;;;;;;4.68;1.33;;;2.40;99.90;;;;;;5084738;28;20028;-78
2023/03/15 05:06:06;;;;;;;8.63;1.60;;;2.30;99.90;;;;;;5076960;27;20155;-78
2023/03/15 05:08:37;;;;;;;4.38;1.30;;;2.20;99.90;;;;;;5090604;27;20036;-78
2023/03/15 05:11:04;;;;;;;6.00;1.38;;;2.40;99.90;;;;;;5088031;27;20036;-78
2023/03/15 05:13:30;;;;;;;8.40;1.42;;;2.00;99.90;;;;;;5115042;27;20487;-77
2023/03/15 05:15:56;;;;;;;10.38;1.30;;;2.40;99.90;;;;;;5110471;27;20038;-78
2023/03/15 05:18:21;;;;;;;8.15;1.63;;;2.20;99.90;;;;;;5118574;27;20092;-78
2023/03/15 05:20:47;;;;;;;7.28;1.60;;;2.10;99.90;;;;;;5089556;27;20039;-77
2023/03/15 05:23:15;;;;;;;5.10;1.23;;;2.20;99.90;;;;;;5110253;27;20080;-76
2023/03/15 05:25:42;;;;;;;6.80;1.40;;;2.20;99.90;;;;;;5113645;28;20043;-77
2023/03/15 05:28:07;;;;;;;5.45;1.20;;;2.20;99.90;;;;;;5090825;28;20398;-76
2023/03/15 05:30:33;;;;;;;5.93;1.23;;;2.20;99.90;;;;;;5094742;28;20039;-76
2023/03/15 05:33:03;;;;;;;9.35;1.63;;;2.10;99.90;;;;;;5099915;28;20035;-78
2023/03/15 05:35:29;;;;;;;6.45;1.20;;;2.10;99.90;;;;;;5124573;28;20034;-79
2023/03/15 05:37:55;;;;;;;3.97;1.20;;;2.80;99.90;;;;;;5120356;27;20114;-78
2023/03/15 05:40:20;;;;;;;6.88;1.38;;;2.00;99.90;;;;;;5118239;28;20549;-78
2023/03/15 05:42:46;;;;;;;4.75;1.00;;;2.70;99.90;;;;;;5094087;27;20032;-78
2023/03/15 05:45:11;;;;;;;5.97;1.35;;;2.20;99.90;;;;;;5114531;27;20571;-78
2023/03/15 05:47:37;;;;;;;5.38;1.27;;;2.00;99.90;;;;;;5088720;28;20073;-79
2023/03/15 05:50:03;;;;;;;5.60;1.20;;;1.80;99.90;;;;;;5108854;28;20138;-80
2023/03/15 05:52:30;;;;;;;6.90;1.25;;;2.20;99.90;;;;;;5087891;28;20084;-81
2023/03/15 05:54:56;;;;;;;5.85;1.38;;;2.10;99.90;;;;;;5092286;28;20089;-80
2023/03/15 05:57:21;;;;;;;5.22;1.00;;;2.00;99.90;;;;;;5114308;28;20550;-80
2023/03/15 05:59:47;;;;;;;7.93;1.58;;;3.50;99.90;;;;;;5098334;28;20043;-76
2023/03/15 06:02:13;;;;;;;5.75;1.20;;;2.40;99.90;;;;;;5095472;28;20083;-76
2023/03/15 06:04:38;;;;;;;7.30;1.42;;;2.20;99.90;;;;;;5116320;27;20039;-76
2023/03/15 06:07:04;;;;;;;4.68;1.20;;;2.70;99.90;;;;;;5114289;28;20035;-76
2023/03/15 06:09:30;;;;;;;8.48;1.30;;;2.20;99.90;;;;;;5111264;27;20067;-76
2023/03/15 06:11:57;;;;;;;7.18;1.27;;;2.20;99.90;;;;;;5103515;28;20118;-76
2023/03/15 06:14:24;;;;;;;6.45;1.55;;;2.20;99.90;;;;;;5087457;27;20480;-76
2023/03/15 06:16:49;;;;;;;5.97;1.20;;;2.20;99.90;;;;;;5099701;27;20035;-76
2023/03/15 06:19:15;;;;;;;5.47;1.40;;;2.20;99.90;;;;;;5115014;27;20089;-76
2023/03/15 06:21:40;;;;;;;6.30;1.40;;;2.30;99.90;;;;;;5127286;27;20066;-76
2023/03/15 06:24:06;;;;;;;6.05;1.20;;;2.30;99.90;;;;;;5105207;27;20027;-76
2023/03/15 06:26:32;;;;;;;4.80;1.08;;;2.30;99.90;;;;;;5113040;27;20031;-76
2023/03/15 06:28:58;;;;;;;5.68;1.15;;;2.30;99.90;;;;;;5112258;27;20035;-79
2023/03/15 06:31:23;;;;;;;6.18;1.17;;;2.30;99.90;;;;;;5102628;27;20466;-77
2023/03/15 06:33:49;;;;;;;3.28;1.00;;;2.30;99.90;;;;;;5134918;27;20474;-76
2023/03/15 06:36:14;;;;;;;7.10;1.13;;;2.20;99.90;;;;;;5103764;27;20567;-75
2023/03/15 06:38:41;;;;;;;5.30;1.15;;;2.30;99.90;;;;;;5100628;27;20511;-76
2023/03/15 06:41:07;;;;;;;6.63;1.10;;;2.30;99.90;;;;;;5099000;28;20036;-77
2023/03/15 06:43:33;;;;;;;8.20;1.52;;;2.50;99.90;;;;;;5092052;28;20035;-75
2023/03/15 06:45:59;;;;;;;4.20;1.20;;;2.30;99.90;;;;;;5082540;27;20067;-76
2023/03/15 06:48:26;;;;;;;3.28;1.00;;;2.20;99.90;;;;;;5099678;27;20074;-77
2023/03/15 06:50:53;;;;;;;6.32;1.13;;;2.30;99.90;;;;;;5083720;27;20043;-76
2023/03/15 06:53:18;;;;;;;6.95;1.10;;;2.30;99.90;;;;;;5090398;27;20100;-75
2023/03/15 06:55:45;;;;;;;5.90;1.00;;;2.30;99.90;;;;;;5106666;27;20445;-75
2023/03/15 06:58:12;;;;;;;6.30;1.30;;;2.30;99.90;;;;;;5103016;27;20035;-75
2023/03/15 07:00:38;;;;;;;7.05;1.30;;;2.30;99.90;;;;;;5123184;27;20114;-75
2023/03/15 07:03:04;;;;;;;6.10;1.35;;;2.30;99.90;;;;;;5103637;27;20122;-75
2023/03/15 07:05:30;;;;;;;5.30;1.27;;;3.30;99.90;;;;;;5123906;27;20483;-74
2023/03/15 07:07:56;;;;;;;6.82;1.08;;;2.30;99.90;;;;;;5111747;27;20031;-75
2023/03/15 07:10:22;;;;;;;6.03;1.35;;;2.30;99.90;;;;;;5118050;27;20445;-74
2023/03/15 07:12:47;;;;;;;5.65;1.30;;;2.30;99.90;;;;;;5095794;27;20030;-75
2023/03/15 07:15:13;;;;;;;10.45;1.27;;;2.30;99.90;;;;;;5111816;27;20222;-75
2023/03/15 07:17:39;;;;;;;6.03;1.48;;;4.10;99.90;;;;;;5099311;27;20134;-75
2023/03/15 07:20:05;;;;;;;5.80;1.20;;;2.30;99.90;;;;;;5099800;27;20046;-75
2023/03/15 07:22:32;;;;;;;7.00;1.60;;;2.30;99.90;;;;;;5080788;28;20036;-75
2023/03/15 07:24:59;;;;;;;7.30;1.23;;;2.40;99.90;;;;;;5107933;27;20062;-75
2023/03/15 07:27:25;;;;;;;4.75;1.40;;;2.40;99.90;;;;;;5117477;27;20575;-74
2023/03/15 07:29:51;;;;;;;4.22;1.15;;;2.40;99.90;;;;;;5090049;27;20039;-74
2023/03/15 07:32:17;;;;;;;5.00;1.00;;;2.40;99.90;;;;;;5105062;27;20482;-74
2023/03/15 07:34:42;;;;;;;3.22;1.05;;;2.40;99.90;;;;;;5082922;28;20032;-73
2023/03/15 07:37:09;;;;;;;4.97;1.40;;;2.50;99.90;;;;;;5104616;27;20087;-74
2023/03/15 07:39:34;;;;;;;6.22;1.08;;;2.50;99.90;;;;;;5111368;27;20039;-70
2023/03/15 07:42:01;;;;;;;7.22;1.20;;;2.50;99.90;;;;;;5125631;27;20425;-74
2023/03/15 07:44:26;;;;;;;8.02;1.70;;;2.60;99.90;;;;;;5122630;27;20080;-74
2023/03/15 07:46:53;;;;;;;4.15;1.15;;;2.60;99.90;;;;;;5083230;28;20043;-75
2023/03/15 07:49:19;;;;;;;8.65;1.25;;;2.70;99.90;;;;;;5101912;27;20406;-74
2023/03/15 07:51:45;;;;;;;6.55;1.10;;;2.70;99.90;;;;;;5107009;27;20036;-74
2023/03/15 07:54:10;;;;;;;6.13;2.00;;;2.80;99.90;;;;;;5100183;28;20157;-76
2023/03/15 07:56:36;;;;;;;19.38;6.65;;;2.70;99.90;;;;;;5082779;28;20398;-75
2023/03/15 07:59:01;;;;;;;8.65;2.00;;;2.90;99.90;;;;;;5113134;27;20126;-75
2023/03/15 08:01:27;;;;;;;8.43;3.28;;;2.90;99.90;;;;;;5109340;27;20046;-75
2023/03/15 08:03:53;;;;;;;6.20;1.77;;;3.00;99.90;;;;;;5101315;27;20039;-75
2023/03/15 08:06:19;;;;;;;6.80;1.83;;;3.10;99.90;;;;;;5087648;27;20066;-75
2023/03/15 08:08:45;;;;;;;5.60;1.40;;;3.10;99.90;;;;;;5113443;27;20039;-75
2023/03/15 08:11:11;;;;;;;8.63;1.80;;;3.10;99.90;;;;;;5087762;27;20035;-75
2023/03/15 08:13:37;;;;;;;8.13;1.60;;;3.20;99.90;;;;;;5087140;27;20047;-76
2023/03/15 08:16:02;;;;;;;10.10;1.48;;;3.20;99.90;;;;;;5086058;27;20055;-76
2023/03/15 08:18:28;;;;;;;7.43;1.33;;;3.40;99.90;;;;;;5125849;27;20035;-74
2023/03/15 08:20:54;;;;;;;9.73;2.80;;;3.50;99.90;;;;;;5120651;27;20031;-75
2023/03/15 08:23:20;;;;;;;16.80;3.40;;;3.50;99.90;;;;;;5090292;27;20045;-74
2023/03/15 08:25:48;;;;;;;10.27;3.10;;;3.60;99.90;;;;;;5089519;27;20039;-75
2023/03/15 08:28:14;;;;;;;9.43;1.98;;;4.50;99.90;;;;;;5126204;27;20039;-75
2023/03/15 08:30:40;;;;;;;11.65;1.77;;;3.70;99.90;;;;;;5108845;28;20028;-75
2023/03/15 08:33:06;;;;;;;7.57;1.52;;;3.80;99.90;;;;;;5091242;27;20088;-75
2023/03/15 08:35:33;;;;;;;5.70;1.38;;;3.80;99.90;;;;;;5085640;28;20041;-74
2023/03/15 08:38:01;;;;;;;11.43;1.90;;;3.90;99.90;;;;;;5104106;27;20031;-77
2023/03/15 08:40:28;;;;;;;7.47;1.38;;;4.00;99.90;;;;;;5098142;27;20035;-74
2023/03/15 08:42:54;;;;;;;5.82;1.40;;;4.10;99.90;;;;;;5103497;27;20728;-74
2023/03/15 08:45:22;;;;;;;7.13;1.35;;;4.10;99.90;;;;;;5113805;27;20038;-75
2023/03/15 08:47:48;;;;;;;10.25;3.30;;;4.20;99.90;;;;;;5103542;27;20035;-75
2023/03/15 08:50:15;;;;;;;8.05;2.00;;;4.20;99.90;;;;;;5113370;27;20514;-75
2023/03/15 08:52:43;;;;;;;12.60;4.38;;;4.20;99.90;;;;;;5107661;27;20371;-75
2023/03/15 08:55:14;;;;;;;10.35;4.85;;;4.20;99.90;;;;;;5087070;28;20035;-76
2023/03/15 08:57:41;;;;;;;16.92;9.45;;;4.30;99.90;;;;;;5096214;28;20035;-75
2023/03/15 09:00:08;;;;;;;13.57;6.57;;;4.30;99.90;;;;;;5094936;27;20039;-75
2023/03/15 09:02:36;;;;;;;11.32;4.00;;;4.30;99.90;;;;;;5094384;27;20031;-75
2023/03/15 09:05:03;;;;;;;9.32;3.60;;;5.70;99.90;;;;;;5113423;27;20608;-74
2023/03/15 09:07:37;;;;;;;5.47;2.30;;;4.40;99.90;;;;;;5082003;28;20039;-75
2023/03/15 09:10:03;;;;;;;17.67;6.53;;;4.40;99.90;;;;;;5106082;27;20114;-75
2023/03/15 09:12:29;;;;;;;9.25;3.60;;;4.40;99.90;;;;;;5109212;28;20035;-75
2023/03/15 09:14:54;;;;;;;8.65;3.75;;;4.40;99.90;;;;;;5107572;27;20383;-77
2023/03/15 09:17:20;;;;;;;12.85;2.80;;;4.70;99.90;;;;;;5089260;27;20042;-74
2023/03/15 09:19:46;;;;;;;81.28;44.33;;;4.40;99.90;;;;;;5130713;27;20076;-74
2023/03/15 09:22:11;;;;;;;20.27;8.10;;;3.80;99.90;;;;;;5120708;27;20038;-75
2023/03/15 09:24:37;;;;;;;14.32;4.15;;;5.20;99.90;;;;;;5120946;27;20030;-75
2023/03/15 09:27:03;;;;;;;10.60;3.00;;;4.50;99.90;;;;;;5104285;27;20035;-76
2023/03/15 09:29:28;;;;;;;13.27;2.83;;;4.50;99.90;;;;;;5109667;28;20039;-74
2023/03/15 09:31:55;;;;;;;12.00;4.97;;;4.60;99.90;;;;;;5107265;28;20085;-75
2023/03/15 09:34:20;;;;;;;11.07;3.53;;;4.60;99.90;;;;;;5096457;28;20479;-75
2023/03/15 09:36:51;;;;;;;7.28;2.90;;;4.60;99.90;;;;;;5105589;28;20031;-75
2023/03/15 09:39:20;;;;;;;10.43;1.95;;;4.70;99.90;;;;;;5104240;28;20096;-75
2023/03/15 09:41:52;;;;;;;12.93;4.63;;;4.70;99.90;;;;;;5132641;28;20433;-75
2023/03/15 09:44:33;;;;;;;9.55;3.40;;;4.80;99.90;;;;;;5129039;22;20130;31
2023/03/15 09:47:06;;;;;;;10.98;2.30;;;4.80;99.90;;;;;;5013700;28;20080;-73
2023/03/15 09:50:00;;;;;;;8.27;4.03;;;4.90;99.90;;;;;;5010982;28;20034;-76
2023/03/15 09:52:49;;;;;;;7.47;2.00;;;5.00;99.90;;;;;;5032910;28;20460;-74
2023/03/15 09:55:21;;;;;;;6.65;2.03;;;5.10;99.90;;;;;;5028980;28;20049;-75
2023/03/15 09:57:51;;;;;;;7.93;1.80;;;5.20;99.90;;;;;;5030080;28;20064;-75
2023/03/15 10:00:29;;;;;;;17.48;7.22;;;5.40;99.90;;;;;;5030434;28;20049;-74
2023/03/15 10:02:59;;;;;;;10.30;3.05;;;5.50;99.90;;;;;;5029063;28;20037;-75
2023/03/15 10:05:41;;;;;;;6.00;1.80;;;5.70;99.90;;;;;;5023413;28;20037;-75
2023/03/15 10:08:12;;;;;;;8.27;1.95;;;5.80;99.90;;;;;;5028446;28;20485;-75
2023/03/15 10:10:46;;;;;;;7.65;1.60;;;6.00;99.90;;;;;;5032693;28;20492;-76
2023/03/15 10:13:48;;;;;;;7.78;1.90;;;6.20;99.90;;;;;;5029632;28;20088;-75
2023/03/15 10:16:44;;;;;;;9.57;1.60;;;6.50;99.90;;;;;;5041283;28;20057;-75
2023/03/15 10:19:11;;;;;;;10.48;1.73;;;6.80;99.90;;;;;;5040129;28;20156;-76
2023/03/15 10:21:42;;;;;;;8.25;2.67;;;7.10;99.90;;;;;;5030239;28;20416;-75
2023/03/15 10:24:41;;;;;;;7.25;1.90;;;7.30;99.90;;;;;;5019590;28;20045;-75
2023/03/15 10:27:30;;;;;;;7.32;3.05;;;7.50;99.90;;;;;;5016660;28;20050;-75
2023/03/15 10:29:58;;;;;;;10.38;5.78;;;7.80;99.90;;;;;;5021819;28;20037;-75
2023/03/15 10:32:34;;;;;;;7.95;3.95;;;8.00;99.90;;;;;;5036634;28;20033;-75
2023/03/15 10:35:00;;;;;;;7.22;3.47;;;8.20;99.90;;;;;;5017868;28;20117;-75
2023/03/15 10:37:26;;;;;;;6.13;1.90;;;8.40;99.90;;;;;;5017170;28;20490;-75
2023/03/15 10:39:57;;;;;;;4.88;1.25;;;8.50;99.90;;;;;;5017796;28;20057;-76
2023/03/15 10:42:32;;;;;;;6.37;1.80;;;8.50;99.90;;;;;;5019008;28;20746;-75
2023/03/15 10:45:10;;;;;;;5.03;1.30;;;8.60;99.90;;;;;;5036947;28;20045;-75
2023/03/15 10:47:41;;;;;;;4.82;1.10;;;8.60;99.90;;;;;;5023246;28;20124;-74
2023/03/15 10:50:15;;;;;;;6.55;1.33;;;8.80;99.90;;;;;;5021808;28;20057;-74
2023/03/15 10:52:44;;;;;;;5.50;1.75;;;8.90;99.90;;;;;;5031624;28;20045;-75
2023/03/15 10:55:14;;;;;;;7.60;1.50;;;9.00;99.90;;;;;;5027562;28;20064;-74
2023/03/15 10:57:50;;;;;;;5.32;1.60;;;9.00;99.90;;;;;;5030357;28;20041;-73
2023/03/15 11:00:24;;;;;;;7.45;1.38;;;9.00;99.90;;;;;;5031114;28;20106;-73
2023/03/15 11:03:18;;;;;;;9.93;1.75;;;9.10;99.90;;;;;;5032382;28;20063;-75
2023/03/15 11:05:47;;;;;;;5.47;1.50;;;9.10;99.90;;;;;;5031354;28;20057;-74
2023/03/15 11:08:15;;;;;;;7.47;1.67;;;9.20;99.90;;;;;;5024073;28;20052;-75
2023/03/15 11:10:41;;;;;;;9.90;1.50;;;9.30;99.90;;;;;;5023532;28;20042;-74
2023/03/15 11:13:19;;;;;;;7.10;1.33;;;9.30;99.90;;;;;;5029573;28;20080;-75
2023/03/15 11:15:57;;;;;;;10.68;1.60;;;9.40;99.90;;;;;;5021104;28;20121;-74
2023/03/15 11:18:41;;;;;;;4.95;1.25;;;9.50;99.90;;;;;;5031887;28;20096;-77
2023/03/15 11:21:10;;;;;;;6.10;1.42;;;9.50;99.90;;;;;;5021674;28;20037;-75
2023/03/15 11:23:39;;;;;;;5.20;1.55;;;9.60;99.90;;;;;;5025703;28;20268;-75
2023/03/15 11:26:05;;;;;;;5.97;1.38;;;9.70;99.90;;;;;;5027869;28;20417;-75
2023/03/15 11:28:34;;;;;;;7.80;1.65;;;9.70;99.90;;;;;;5023807;28;20046;-74
2023/03/15 11:31:03;;;;;;;5.80;1.30;;;9.60;99.90;;;;;;5019165;28;20044;-75
2023/03/15 11:33:56;;;;;;;6.03;1.50;;;9.60;99.90;;;;;;5020790;28;20048;-75
2023/03/15 11:36:27;;;;;;;4.40;1.33;;;9.70;99.90;;;;;;5025800;28;20052;-75
2023/03/15 11:38:54;;;;;;;8.27;1.50;;;9.70;99.90;;;;;;5026945;28;20034;-76
2023/03/15 11:41:35;;;;;;;6.35;1.42;;;9.60;99.60;;;;;;5025883;28;20484;-75
2023/03/15 11:44:18;;;;;;;4.65;1.40;;;9.50;99.90;;;;;;5034950;28;20505;-75
2023/03/15 11:47:19;;;;;;;6.63;1.30;;;9.50;99.90;;;;;;5031633;28;20037;-76
2023/03/15 11:49:51;;;;;;;6.85;1.38;;;9.60;99.90;;;;;;5024823;28;20076;-76
2023/03/15 11:52:20;;;;;;;5.60;1.08;;;9.90;99.90;;;;;;5027332;28;20047;-75
2023/03/15 11:54:46;;;;;;;5.28;1.50;;;10.10;99.90;;;;;;5025806;28;20095;-76
2023/03/15 11:57:35;;;;;;;9.00;1.60;;;10.20;99.90;;;;;;5021208;28;20041;-75
2023/03/15 12:00:20;;;;;;;6.18;1.58;;;10.40;99.90;;;;;;5028115;28;20044;-76
2023/03/15 12:02:55;;;;;;;6.05;1.40;;;10.30;99.90;;;;;;5022926;28;20052;-76
2023/03/15 12:05:41;;;;;;;7.13;1.55;;;10.20;99.90;;;;;;5019886;28;20037;-76
2023/03/15 12:08:26;;;;;;;5.10;1.20;;;10.00;99.10;;;;;;5025638;28;20045;-76
2023/03/15 12:10:52;;;;;;;6.93;1.65;;;9.90;98.60;;;;;;5025594;28;20044;-75
2023/03/15 12:13:27;;;;;;;5.70;1.30;;;9.80;99.90;;;;;;5020301;28;20037;-72
2023/03/15 12:15:53;;;;;;;6.85;1.73;;;9.90;99.90;;;;;;5023356;28;20061;-75
2023/03/15 12:18:42;;;;;;;5.50;1.73;;;9.90;99.90;;;;;;5026849;28;20417;-76
2023/03/15 12:21:32;;;;;;;6.32;1.60;;;9.90;99.90;;;;;;5021730;28;20061;-76
2023/03/15 12:24:03;;;;;;;5.13;1.60;;;9.80;99.60;;;;;;5024950;28;20049;-76
2023/03/15 12:26:42;;;;;;;8.38;1.60;;;9.80;99.20;;;;;;5039758;28;20516;-76
2023/03/15 12:29:25;;;;;;;5.43;1.30;;;9.80;98.90;;;;;;5023884;28;20033;-75
2023/03/15 12:32:06;;;;;;;3.10;1.05;;;9.80;98.10;;;;;;5028138;28;20030;-76
2023/03/15 12:34:53;;;;;;;5.28;1.20;;;9.80;97.90;;;;;;5025385;28;20099;-75
2023/03/15 12:37:36;;;;;;;5.97;1.42;;;9.90;98.90;;;;;;5023819;28;20041;-76
2023/03/15 12:40:14;;;;;;;6.47;1.13;;;10.00;97.80;;;;;;5017628;28;20088;-76
2023/03/15 12:42:40;;;;;;;6.25;1.42;;;10.00;98.80;;;;;;5000477;28;20037;-76
2023/03/15 12:45:14;;;;;;;7.22;1.52;;;10.10;99.50;;;;;;5028297;28;20037;-76
2023/03/15 12:47:49;;;;;;;6.45;1.38;;;10.20;98.30;;;;;;5025259;28;20132;-76
2023/03/15 12:50:49;;;;;;;5.40;1.20;;;10.30;97.40;;;;;;5023234;28;20056;-77
2023/03/15 12:53:37;;;;;;;4.85;1.20;;;10.30;96.80;;;;;;5025105;28;20498;-76
2023/03/15 12:56:28;;;;;;;7.85;1.50;;;9.90;95.50;;;;;;5025862;28;20052;-76
2023/03/15 12:59:00;;;;;;;4.65;1.20;;;10.10;95.90;;;;;;5029947;28;20120;-76
2023/03/15 13:01:26;;;;;;;5.50;1.45;;;10.10;96.00;;;;;;5020926;28;20529;-76
2023/03/15 13:03:57;;;;;;;7.18;1.40;;;10.00;96.20;;;;;;5022658;28;20045;-76
2023/03/15 13:06:55;;;;;;;5.03;1.40;;;10.00;95.60;;;;;;5029586;28;20080;-76
2023/03/15 13:09:38;;;;;;;3.55;1.20;;;10.00;95.60;;;;;;5022566;28;20069;-76
2023/03/15 13:12:17;;;;;;;4.13;1.08;;;9.90;95.10;;;;;;5024107;28;20045;-76
2023/03/15 13:15:11;;;;;;;5.95;1.20;;;10.00;94.30;;;;;;5023170;28;20091;-76
2023/03/15 13:17:45;;;;;;;5.38;1.75;;;9.90;94.60;;;;;;5020645;28;20048;-76